Mansfield, Georgia
Current Conditions -  °F | °C
As of 3:35 AM on Friday 24 Oct 2014 (Local Time) from KCVC Reporting Station
Haze Haze  
Wind Chill: 48°   Ceiling: 700
Heat Index: 48°   Visibility: 1.7mi
Dew Point: 48°   Wind: 0mph
Humidity: 100%   Direction: NA
Pressure: 30.03"   Gusts: NA
Location:  33.52°N, 83.73°W
Report Text: KCVC 240735Z AUTO 00000KT 1 3/4SM BR VV007 09/09 A3003 RMK AO2 VIS 3/4V5
Loading
Personal Weather Stations






























Interactive Weather Map
Tropical Storm Tracking
New forecast layout! Learn more

10-Day Weather Forecast

Advertisements
Track Severe Weather on mobile